createdAt,value
2023-01-27T00:00:14.469Z,8.02
2023-01-27T00:05:11.697Z,7.25
2023-01-27T00:10:06.229Z,9.10
2023-01-27T00:14:58.899Z,9.40
2023-01-27T00:19:52.150Z,8.00
2023-01-27T00:24:45.705Z,7.65
2023-01-27T00:29:40.273Z,9.70
2023-01-27T00:34:33.418Z,7.05
2023-01-27T00:39:27.281Z,6.95
2023-01-27T00:44:20.299Z,6.53
2023-01-27T00:49:13.591Z,5.90
2023-01-27T00:54:06.768Z,7.45
2023-01-27T00:58:59.719Z,6.60
2023-01-27T01:03:52.702Z,6.03
2023-01-27T01:08:46.049Z,5.40
2023-01-27T01:13:39.161Z,4.82
2023-01-27T01:18:33.793Z,6.85
2023-01-27T01:23:27.264Z,6.43
2023-01-27T01:28:21.223Z,5.80
2023-01-27T01:33:14.423Z,5.68
2023-01-27T01:38:07.028Z,5.38
2023-01-27T01:43:05.262Z,5.85
2023-01-27T01:48:03.082Z,6.35
2023-01-27T01:52:56.275Z,7.25
2023-01-27T01:57:51.099Z,5.07
2023-01-27T02:02:49.387Z,5.15
2023-01-27T02:07:57.639Z,5.65
2023-01-27T02:12:50.174Z,4.72
2023-01-27T02:17:43.048Z,6.22
2023-01-27T02:22:44.679Z,4.93
2023-01-27T02:27:38.154Z,5.18
2023-01-27T02:32:31.002Z,5.07
2023-01-27T02:37:25.002Z,5.60
2023-01-27T02:42:20.162Z,5.68
2023-01-27T02:47:13.005Z,5.05
2023-01-27T02:52:06.382Z,5.45
2023-01-27T02:57:00.267Z,5.55
2023-01-27T03:01:55.320Z,5.70
2023-01-27T03:06:49.123Z,5.72
2023-01-27T03:12:00.093Z,5.20
2023-01-27T03:17:11.540Z,4.53
2023-01-27T03:22:04.740Z,4.47
2023-01-27T03:27:00.940Z,7.30
2023-01-27T03:32:12.261Z,5.80
2023-01-27T03:37:33.328Z,8.32
2023-01-27T03:42:46.232Z,4.60
2023-01-27T03:47:39.059Z,5.50
2023-01-27T03:52:32.331Z,5.32
2023-01-27T03:57:24.464Z,5.13
2023-01-27T04:02:36.605Z,4.53
2023-01-27T04:07:29.115Z,4.55
2023-01-27T04:12:21.992Z,5.95
2023-01-27T04:17:20.298Z,3.75
2023-01-27T04:22:13.666Z,7.80
2023-01-27T04:27:10.125Z,3.88
2023-01-27T04:32:04.851Z,5.20
2023-01-27T04:36:57.740Z,7.95
2023-01-27T04:41:50.553Z,4.95
2023-01-27T04:46:43.717Z,3.55
2023-01-27T04:51:37.226Z,4.80
2023-01-27T04:56:37.961Z,4.75
2023-01-27T05:01:31.558Z,4.13
2023-01-27T05:06:26.826Z,4.00
2023-01-27T05:11:20.031Z,8.70
2023-01-27T05:16:13.739Z,4.35
2023-01-27T05:21:08.044Z,3.78
2023-01-27T05:26:07.078Z,5.18
2023-01-27T05:31:05.115Z,4.25
2023-01-27T05:36:03.394Z,4.88
2023-01-27T05:41:17.759Z,5.25
2023-01-27T05:46:14.979Z,5.28
2023-01-27T05:51:08.858Z,3.30
2023-01-27T05:56:02.483Z,5.38
2023-01-27T06:00:56.654Z,4.80
2023-01-27T06:05:55.914Z,5.30
2023-01-27T06:10:48.743Z,4.10
2023-01-27T06:15:42.804Z,5.90
2023-01-27T06:20:35.970Z,4.47
2023-01-27T06:25:30.036Z,11.30
2023-01-27T06:30:23.386Z,9.70
2023-01-27T06:35:17.203Z,4.68
2023-01-27T06:40:11.672Z,5.10
2023-01-27T06:45:08.215Z,18.88
2023-01-27T06:50:01.431Z,5.03
2023-01-27T06:54:54.924Z,4.22
2023-01-27T06:59:48.332Z,4.03
2023-01-27T07:04:41.708Z,5.78
2023-01-27T07:09:50.597Z,4.93
2023-01-27T07:14:45.635Z,6.32
2023-01-27T07:19:38.711Z,7.63
2023-01-27T07:24:32.540Z,4.93
2023-01-27T07:29:25.084Z,5.32
2023-01-27T07:34:18.083Z,9.82
2023-01-27T07:39:11.492Z,5.78
2023-01-27T07:44:04.125Z,9.18
2023-01-27T07:49:00.059Z,8.27
2023-01-27T07:53:53.530Z,12.07
2023-01-27T07:58:46.368Z,9.68
2023-01-27T08:03:40.112Z,8.48
2023-01-27T08:08:33.597Z,9.98
2023-01-27T08:13:27.753Z,6.60
2023-01-27T08:18:20.637Z,5.60
2023-01-27T08:23:13.483Z,5.78
2023-01-27T08:28:06.897Z,4.38
2023-01-27T08:33:00.113Z,7.60
2023-01-27T08:37:53.640Z,8.48
2023-01-27T08:42:47.543Z,4.78
2023-01-27T08:47:40.855Z,7.80
2023-01-27T08:52:34.976Z,4.28
2023-01-27T08:57:28.290Z,4.78
2023-01-27T09:02:22.918Z,5.32
2023-01-27T09:07:16.403Z,9.05
2023-01-27T09:12:09.207Z,10.75
2023-01-27T09:17:01.598Z,8.82
2023-01-27T09:21:54.524Z,11.90
2023-01-27T09:26:48.050Z,9.85
2023-01-27T09:31:41.205Z,13.48
2023-01-27T09:36:41.187Z,11.98
2023-01-27T09:41:52.623Z,9.18
2023-01-27T09:47:07.571Z,8.90
2023-01-27T09:52:45.403Z,11.18
2023-01-27T09:57:48.244Z,6.40
2023-01-27T10:02:49.525Z,7.80
2023-01-27T10:08:35.359Z,8.98
2023-01-27T10:13:45.617Z,8.93
2023-01-27T10:18:40.594Z,6.93
2023-01-27T10:23:54.087Z,7.60
2023-01-27T10:28:52.704Z,8.30
2023-01-27T10:33:55.108Z,11.77
2023-01-27T10:39:15.462Z,14.02
2023-01-27T10:44:10.892Z,6.38
2023-01-27T10:49:15.792Z,12.57
2023-01-27T10:54:18.251Z,9.35
2023-01-27T10:59:30.595Z,12.95
2023-01-27T11:04:43.607Z,10.32
2023-01-27T11:09:47.902Z,8.30
2023-01-27T11:14:50.156Z,7.80
2023-01-27T11:19:50.097Z,8.65
2023-01-27T11:24:48.297Z,4.57
2023-01-27T11:29:51.974Z,6.25
2023-01-27T11:35:14.266Z,6.40
2023-01-27T11:40:38.475Z,5.63
2023-01-27T11:45:36.191Z,5.57
2023-01-27T11:50:36.589Z,8.57
2023-01-27T11:55:37.670Z,7.70
2023-01-27T12:00:38.920Z,6.95
2023-01-27T12:05:35.191Z,7.95
2023-01-27T12:10:32.066Z,4.45
2023-01-27T12:15:29.015Z,11.75
2023-01-27T12:20:38.848Z,6.85
2023-01-27T12:25:44.956Z,11.00
2023-01-27T12:30:40.020Z,5.45
2023-01-27T12:35:36.376Z,7.82
2023-01-27T12:40:29.878Z,5.90
2023-01-27T12:45:27.125Z,4.60
2023-01-27T12:50:22.925Z,18.92
2023-01-27T12:55:37.428Z,29.38
2023-01-27T13:00:30.505Z,25.67
2023-01-27T13:05:23.983Z,38.65
2023-01-27T13:10:21.367Z,22.58
2023-01-27T13:15:43.872Z,21.88
2023-01-27T13:20:52.049Z,20.77
2023-01-27T13:26:05.989Z,17.55
2023-01-27T13:31:06.786Z,21.30
2023-01-27T13:36:07.456Z,18.13
2023-01-27T13:41:06.732Z,16.90
2023-01-27T13:46:16.245Z,15.10
2023-01-27T13:51:25.407Z,15.70
2023-01-27T13:56:46.122Z,12.32
2023-01-27T14:01:41.908Z,14.32
2023-01-27T14:07:02.518Z,15.50
2023-01-27T14:12:34.150Z,9.48
2023-01-27T14:17:50.398Z,14.85
2023-01-27T14:22:57.126Z,10.15
2023-01-27T14:28:21.131Z,10.68
2023-01-27T14:33:47.170Z,14.95
2023-01-27T14:38:52.475Z,10.07
2023-01-27T14:44:06.064Z,12.35
2023-01-27T14:49:31.900Z,9.43
2023-01-27T14:55:02.854Z,7.68
2023-01-27T15:00:20.789Z,9.55
2023-01-27T15:05:44.113Z,10.23
2023-01-27T15:10:45.960Z,6.85
2023-01-27T15:15:57.767Z,8.82
2023-01-27T15:21:08.765Z,6.32
2023-01-27T15:26:24.084Z,7.63
2023-01-27T15:31:17.025Z,6.65
2023-01-27T15:36:38.802Z,6.20
2023-01-27T15:41:50.912Z,7.38
2023-01-27T15:46:49.504Z,6.35
2023-01-27T15:51:51.323Z,6.15
2023-01-27T15:56:44.119Z,6.25
2023-01-27T16:01:36.843Z,6.05
2023-01-27T16:06:49.329Z,5.32
2023-01-27T16:11:43.920Z,8.77
2023-01-27T16:16:37.360Z,5.47
2023-01-27T16:21:51.760Z,7.43
2023-01-27T16:27:00.707Z,6.45
2023-01-27T16:31:59.021Z,6.03
2023-01-27T16:37:02.933Z,8.43
2023-01-27T16:41:58.719Z,8.13
2023-01-27T16:47:19.587Z,5.13
2023-01-27T16:52:24.714Z,6.25
2023-01-27T16:57:55.107Z,9.77
2023-01-27T17:02:50.587Z,7.30
2023-01-27T17:08:17.901Z,10.93
2023-01-27T17:13:30.813Z,6.65
2023-01-27T17:18:25.523Z,10.07
2023-01-27T17:23:30.752Z,10.20
2023-01-27T17:28:46.208Z,7.53
2023-01-27T17:33:39.108Z,8.90
2023-01-27T17:38:47.823Z,8.52
2023-01-27T17:43:41.190Z,7.05
2023-01-27T17:48:36.116Z,12.48
2023-01-27T17:53:30.209Z,8.20
2023-01-27T17:58:26.237Z,10.43
2023-01-27T18:03:36.410Z,22.35
2023-01-27T18:08:35.445Z,19.02
2023-01-27T18:13:28.068Z,15.23
2023-01-27T18:18:27.031Z,10.75
2023-01-27T18:23:27.253Z,13.13
2023-01-27T18:28:21.296Z,12.40
2023-01-27T18:33:15.248Z,10.85
2023-01-27T18:38:23.084Z,8.82
2023-01-27T18:43:16.149Z,7.93
2023-01-27T18:48:16.183Z,17.48
2023-01-27T18:53:17.005Z,10.93
2023-01-27T19:03:12.947Z,9.25
2023-01-27T19:08:07.189Z,12.02
2023-01-27T19:13:02.988Z,13.73
2023-01-27T19:17:57.959Z,12.05
2023-01-27T19:22:52.143Z,11.40
2023-01-27T19:27:51.627Z,15.63
2023-01-27T19:32:45.429Z,11.68
2023-01-27T19:37:39.131Z,17.50
2023-01-27T19:42:32.912Z,17.75
2023-01-27T19:47:26.034Z,15.00
2023-01-27T19:52:18.997Z,33.80
2023-01-27T19:57:16.584Z,12.38
2023-01-27T20:02:13.916Z,13.27
2023-01-27T20:07:06.580Z,14.38
2023-01-27T20:12:00.388Z,16.92
2023-01-27T20:16:53.987Z,15.38
2023-01-27T20:21:47.528Z,15.05
2023-01-27T20:26:40.816Z,23.58
2023-01-27T20:31:34.259Z,15.20
2023-01-27T20:36:28.033Z,9.93
2023-01-27T20:41:23.098Z,12.98
2023-01-27T20:46:18.436Z,13.02
2023-01-27T20:51:13.903Z,11.10
2023-01-27T20:56:08.143Z,11.25
2023-01-27T21:01:08.844Z,9.73
2023-01-27T21:06:01.784Z,9.20
2023-01-27T21:10:55.508Z,15.15
2023-01-27T21:15:52.064Z,8.18
2023-01-27T21:20:51.629Z,8.55
2023-01-27T21:25:46.897Z,10.20
2023-01-27T21:30:41.980Z,8.85
2023-01-27T21:35:34.478Z,8.30
2023-01-27T21:40:32.819Z,9.13
2023-01-27T21:45:26.466Z,6.10
2023-01-27T21:50:19.889Z,6.85
2023-01-27T21:55:25.036Z,7.05
2023-01-27T22:00:27.194Z,8.32
2023-01-27T22:05:20.635Z,9.45
2023-01-27T22:10:16.570Z,7.35
2023-01-27T22:15:10.549Z,9.48
2023-01-27T22:20:04.920Z,9.90
2023-01-27T22:24:58.291Z,6.13
2023-01-27T22:29:52.479Z,8.18
2023-01-27T22:34:45.845Z,9.15
2023-01-27T22:39:42.843Z,8.07
2023-01-27T22:44:35.657Z,6.22
2023-01-27T22:49:29.050Z,6.15
2023-01-27T22:54:21.447Z,11.93
2023-01-27T22:59:15.063Z,6.75
2023-01-27T23:04:07.221Z,7.65
2023-01-27T23:09:00.689Z,6.78
2023-01-27T23:13:53.315Z,7.97
2023-01-27T23:18:45.822Z,6.97
2023-01-27T23:23:38.772Z,4.82
2023-01-27T23:28:32.241Z,4.75
2023-01-27T23:33:27.644Z,5.88
2023-01-27T23:38:32.047Z,4.85
2023-01-27T23:43:25.943Z,4.80
2023-01-27T23:48:20.613Z,6.15
2023-01-27T23:53:14.416Z,4.03
2023-01-27T23:58:08.251Z,4.68
